Time;durP1;ratioP1;P1;durP2;ratioP2;P2;SDS_P1;SDS_P2;PMS_P1;PMS_P2;Temp;Humidity;BMP_temperature;BMP_pressure;BME280_temperature;BME280_humidity;BME280_pressure;Samples;Min_cycle;Max_cycle;Signal;HPM_P1;HPM_P2
2022/04/09 00:01:58;;;;;;;1.70;1.60;;;0.40;99.90;;;;;;4955064;28;20472;-84
2022/04/09 00:04:45;;;;;;;2.20;2.05;;;0.40;99.90;;;;;;4959302;28;20046;-89
2022/04/09 00:07:32;;;;;;;2.22;1.95;;;0.40;99.90;;;;;;4973361;28;20046;-85
2022/04/09 00:10:20;;;;;;;1.73;1.63;;;0.40;99.90;;;;;;4973330;28;20126;-89
2022/04/09 00:13:10;;;;;;;2.53;2.10;;;0.40;99.90;;;;;;4971122;28;20046;-86
2022/04/09 00:16:00;;;;;;;2.97;1.60;;;0.40;99.90;;;;;;4959999;28;20039;-86
2022/04/09 00:18:49;;;;;;;4.03;1.70;;;0.50;99.90;;;;;;4966522;28;20046;-86
2022/04/09 00:21:37;;;;;;;1.60;1.50;;;0.50;99.90;;;;;;4978266;28;20082;-86
2022/04/09 00:24:27;;;;;;;1.83;1.70;;;0.50;99.90;;;;;;4972576;28;20047;-85
2022/04/09 00:27:14;;;;;;;1.98;1.88;;;0.50;99.90;;;;;;4946186;28;20165;-89
2022/04/09 00:30:04;;;;;;;2.40;2.15;;;0.50;99.90;;;;;;4973610;28;20069;-88
2022/04/09 00:32:52;;;;;;;2.25;2.05;;;0.50;99.90;;;;;;4958324;28;20043;-86
2022/04/09 00:35:39;;;;;;;3.10;2.80;;;0.50;99.90;;;;;;4961217;28;20369;-84
2022/04/09 00:38:28;;;;;;;2.75;2.50;;;0.50;99.90;;;;;;4970036;28;20185;-85
2022/04/09 00:41:15;;;;;;;3.17;2.88;;;0.50;99.90;;;;;;5004341;28;20135;-87
2022/04/09 00:44:06;;;;;;;5.65;2.85;;;0.50;99.90;;;;;;5012221;28;20050;-85
2022/04/09 00:46:53;;;;;;;3.50;3.10;;;0.50;99.90;;;;;;5002081;28;20047;-83
2022/04/09 00:49:40;;;;;;;4.35;3.30;;;0.50;99.90;;;;;;4984767;28;20031;-83
2022/04/09 00:52:35;;;;;;;3.70;3.15;;;0.50;99.90;;;;;;4999052;28;20059;-82
2022/04/09 00:58:30;;;;;;;3.20;2.80;;;0.50;99.90;;;;;;4973686;28;20117;-83
2022/04/09 01:01:19;;;;;;;3.83;3.33;;;0.50;99.90;;;;;;4985355;28;20075;-84
2022/04/09 01:04:09;;;;;;;5.90;3.85;;;0.50;99.90;;;;;;4980962;28;20516;-84
2022/04/09 01:06:57;;;;;;;4.40;4.00;;;0.40;99.90;;;;;;4969817;28;20133;-83
2022/04/09 01:09:45;;;;;;;5.30;4.30;;;0.40;99.90;;;;;;4992551;28;20051;-85
2022/04/09 01:12:40;;;;;;;5.50;4.35;;;0.40;99.90;;;;;;4971278;28;20075;-85
2022/04/09 01:15:28;;;;;;;6.65;5.10;;;0.40;99.90;;;;;;4989534;28;20050;-86
2022/04/09 01:18:18;;;;;;;6.22;4.95;;;0.40;99.90;;;;;;4991743;28;20077;-85
2022/04/09 01:21:07;;;;;;;6.60;5.05;;;0.40;99.90;;;;;;4995502;28;20070;-84
2022/04/09 01:23:55;;;;;;;7.00;5.55;;;0.40;99.90;;;;;;4991833;28;20065;-83
2022/04/09 01:26:43;;;;;;;7.68;5.40;;;0.40;99.90;;;;;;4978873;28;20078;-85
2022/04/09 01:29:33;;;;;;;10.20;5.35;;;0.40;99.90;;;;;;4978843;28;20058;-85
2022/04/09 01:32:20;;;;;;;7.55;5.60;;;0.40;99.90;;;;;;5282540;23;20149;-83
2022/04/09 01:35:08;;;;;;;9.88;5.63;;;0.40;99.90;;;;;;4968760;28;20074;-82
2022/04/09 01:37:55;;;;;;;13.02;6.65;;;0.40;99.90;;;;;;4958291;28;20369;-83
2022/04/09 01:40:44;;;;;;;9.95;5.88;;;0.40;99.90;;;;;;4958313;28;20122;-82
2022/04/09 01:43:38;;;;;;;13.82;6.65;;;0.50;99.90;;;;;;4971844;28;20094;-83
2022/04/09 01:46:25;;;;;;;10.52;6.70;;;0.40;99.90;;;;;;4984063;28;20043;-82
2022/04/09 01:49:13;;;;;;;11.45;7.20;;;0.40;99.90;;;;;;4958180;29;20126;-83
2022/04/09 01:52:02;;;;;;;10.35;7.47;;;0.40;99.90;;;;;;4985481;28;20050;-80
2022/04/09 01:54:52;;;;;;;10.90;6.25;;;0.50;99.90;;;;;;4970470;29;20058;-86
2022/04/09 01:57:39;;;;;;;13.10;6.00;;;0.50;99.90;;;;;;4979273;28;20050;-85
2022/04/09 02:00:26;;;;;;;12.00;6.13;;;0.40;99.90;;;;;;4989636;28;20054;-85
2022/04/09 02:03:14;;;;;;;10.98;6.32;;;0.40;99.90;;;;;;4966419;28;20058;-84
2022/04/09 02:06:03;;;;;;;9.73;5.90;;;0.40;99.90;;;;;;4959602;28;20437;-83
2022/04/09 02:08:52;;;;;;;10.95;5.57;;;0.50;99.90;;;;;;4969567;28;20130;-84
2022/04/09 02:11:40;;;;;;;10.82;5.90;;;0.50;99.90;;;;;;4953799;28;20046;-84
2022/04/09 02:14:28;;;;;;;9.25;5.57;;;0.50;99.90;;;;;;4943544;28;20047;-86
2022/04/09 02:17:15;;;;;;;9.20;4.95;;;0.50;99.90;;;;;;4950299;28;20114;-85
2022/04/09 02:20:04;;;;;;;9.88;5.50;;;0.50;99.90;;;;;;4956160;28;20082;-84
2022/04/09 02:22:52;;;;;;;11.48;6.20;;;0.50;99.90;;;;;;4967873;28;20050;-84
2022/04/09 02:25:41;;;;;;;9.52;6.00;;;0.50;99.90;;;;;;4966103;28;20118;-84
2022/04/09 02:28:32;;;;;;;10.05;6.32;;;0.50;99.90;;;;;;4960631;28;20050;-85
2022/04/09 02:31:20;;;;;;;20.67;8.98;;;0.50;99.90;;;;;;4953955;28;20047;-85
2022/04/09 02:34:11;;;;;;;14.55;7.22;;;0.50;99.90;;;;;;4945415;29;20130;-84
2022/04/09 02:36:58;;;;;;;14.55;7.70;;;0.50;99.90;;;;;;4944429;28;20374;-85
2022/04/09 02:39:46;;;;;;;18.80;9.20;;;0.50;99.90;;;;;;4949547;28;20440;-84
2022/04/09 02:42:37;;;;;;;16.33;9.68;;;0.50;99.90;;;;;;4971838;28;20050;-84
2022/04/09 02:45:25;;;;;;;22.38;11.18;;;0.50;99.90;;;;;;4969242;28;20145;-83
2022/04/09 02:48:12;;;;;;;17.25;9.57;;;0.50;99.90;;;;;;4976310;28;20110;-83
2022/04/09 02:50:59;;;;;;;15.70;9.15;;;0.50;99.90;;;;;;4958681;28;20127;-83
2022/04/09 02:53:46;;;;;;;19.92;8.98;;;0.50;99.90;;;;;;4950489;28;20047;-82
2022/04/09 02:56:33;;;;;;;21.55;9.75;;;0.50;99.90;;;;;;4949615;28;20054;-82
2022/04/09 02:59:20;;;;;;;26.90;9.15;;;0.50;99.90;;;;;;4967183;28;20074;-83
2022/04/09 03:02:08;;;;;;;18.92;9.63;;;0.50;99.90;;;;;;4961912;28;20051;-84
2022/04/09 03:04:56;;;;;;;22.08;10.75;;;0.50;99.90;;;;;;4964117;28;20353;-85
2022/04/09 03:07:49;;;;;;;23.20;11.05;;;0.50;99.90;;;;;;4966991;28;20804;-82
2022/04/09 03:10:36;;;;;;;17.02;8.23;;;0.50;99.90;;;;;;4944783;28;20543;-83
2022/04/09 03:13:23;;;;;;;19.90;11.30;;;0.50;99.90;;;;;;4967354;28;20449;-84
2022/04/09 03:16:11;;;;;;;18.20;11.02;;;0.50;99.90;;;;;;4968728;28;20047;-85
2022/04/09 03:18:58;;;;;;;19.25;11.57;;;0.50;99.90;;;;;;4966535;28;20070;-83
2022/04/09 03:21:48;;;;;;;20.48;11.20;;;0.50;99.90;;;;;;4944528;28;20059;-82
2022/04/09 03:24:40;;;;;;;20.02;11.10;;;0.60;99.90;;;;;;4946129;28;20047;-82
2022/04/09 03:27:27;;;;;;;19.58;11.65;;;0.60;99.90;;;;;;4954514;28;20133;-82
2022/04/09 03:30:14;;;;;;;20.55;10.80;;;0.50;99.90;;;;;;4955553;28;20082;-82
2022/04/09 03:33:01;;;;;;;19.15;11.40;;;0.60;99.90;;;;;;4964464;28;20062;-82
2022/04/09 03:35:49;;;;;;;20.48;10.63;;;0.60;99.90;;;;;;4967829;28;20066;-83
2022/04/09 03:38:37;;;;;;;22.80;10.65;;;0.60;99.90;;;;;;4956140;28;20052;-83
2022/04/09 03:41:26;;;;;;;20.42;10.95;;;0.60;99.90;;;;;;4973029;28;20050;-83
2022/04/09 03:44:13;;;;;;;18.67;9.85;;;0.60;99.90;;;;;;4984218;28;20116;-84
2022/04/09 03:47:02;;;;;;;19.92;11.10;;;0.60;99.90;;;;;;4956446;28;20066;-84
2022/04/09 03:49:50;;;;;;;25.65;11.75;;;0.60;99.90;;;;;;4966851;28;20086;-83
2022/04/09 03:52:38;;;;;;;23.60;11.80;;;0.70;99.90;;;;;;4964006;28;20101;-86
2022/04/09 03:55:26;;;;;;;22.00;12.23;;;0.70;99.90;;;;;;4958354;28;20337;-85
2022/04/09 03:58:17;;;;;;;24.48;12.27;;;0.70;99.90;;;;;;4967947;28;20066;-85
2022/04/09 04:01:07;;;;;;;21.42;12.10;;;0.70;99.90;;;;;;4958905;28;20047;-83
2022/04/09 04:03:54;;;;;;;25.25;12.32;;;0.70;99.90;;;;;;4955593;28;20147;-86
2022/04/09 04:06:42;;;;;;;26.83;12.68;;;0.70;99.90;;;;;;4972128;28;20050;-84
2022/04/09 04:09:31;;;;;;;25.65;12.55;;;0.70;99.90;;;;;;4973106;28;20047;-82
2022/04/09 04:12:19;;;;;;;32.35;13.88;;;0.70;99.90;;;;;;4958466;28;20051;-86
2022/04/09 04:15:07;;;;;;;31.52;16.52;;;0.70;99.90;;;;;;4945884;28;20119;-86
2022/04/09 04:17:55;;;;;;;41.00;17.25;;;0.70;99.90;;;;;;4965438;28;20063;-85
2022/04/09 04:20:46;;;;;;;38.75;18.15;;;0.80;99.90;;;;;;4977877;28;20061;-86
2022/04/09 04:23:34;;;;;;;32.92;15.43;;;0.70;99.90;;;;;;4963013;28;20051;-83
2022/04/09 04:26:21;;;;;;;32.33;16.38;;;0.80;99.90;;;;;;4965332;28;20050;-83
2022/04/09 04:29:10;;;;;;;37.15;17.75;;;0.80;99.90;;;;;;4943728;29;20163;-83
2022/04/09 04:31:57;;;;;;;38.28;18.75;;;0.70;99.90;;;;;;4968025;28;20054;-84
2022/04/09 04:34:49;;;;;;;40.78;18.95;;;0.70;99.90;;;;;;4969980;28;20069;-85
2022/04/09 04:37:46;;;;;;;54.13;23.75;;;0.80;99.90;;;;;;4967466;28;20074;-84
2022/04/09 04:40:35;;;;;;;52.03;25.38;;;0.70;99.90;;;;;;4958883;28;20105;-84
2022/04/09 04:43:23;;;;;;;56.47;27.65;;;0.70;99.90;;;;;;4962072;28;20069;-83
2022/04/09 04:46:10;;;;;;;62.53;28.33;;;0.70;99.90;;;;;;4976349;28;20085;-82
2022/04/09 04:48:57;;;;;;;56.63;27.05;;;0.70;99.90;;;;;;4964699;28;20449;-84
2022/04/09 04:51:47;;;;;;;53.10;26.95;;;0.70;99.90;;;;;;4964326;28;20782;-87
2022/04/09 04:54:36;;;;;;;72.75;30.15;;;0.70;99.90;;;;;;4967549;28;20046;-82
2022/04/09 04:57:26;;;;;;;66.78;30.17;;;0.70;99.90;;;;;;4970097;28;20077;-84
2022/04/09 05:00:16;;;;;;;67.90;29.05;;;0.70;99.90;;;;;;4968042;28;20054;-84
2022/04/09 05:03:06;;;;;;;58.15;28.30;;;0.70;99.90;;;;;;4960559;28;20055;-84
2022/04/09 05:05:53;;;;;;;63.92;31.27;;;0.70;99.90;;;;;;4974521;28;20043;-85
2022/04/09 05:08:43;;;;;;;61.22;29.80;;;0.70;99.90;;;;;;4962753;28;20175;-84
2022/04/09 05:11:32;;;;;;;58.38;27.27;;;0.70;99.90;;;;;;4967758;28;20055;-85
2022/04/09 05:14:19;;;;;;;59.60;27.70;;;0.70;99.90;;;;;;4962872;28;20070;-86
2022/04/09 05:17:07;;;;;;;52.72;28.25;;;0.80;99.90;;;;;;4970351;28;20195;-85
2022/04/09 05:19:57;;;;;;;51.42;26.98;;;0.80;99.90;;;;;;4944635;28;20055;-87
2022/04/09 05:22:47;;;;;;;59.50;28.00;;;0.80;99.90;;;;;;4959116;28;20121;-86
2022/04/09 05:25:36;;;;;;;52.38;27.33;;;0.80;99.90;;;;;;4973085;28;20194;-84
2022/04/09 05:28:23;;;;;;;52.85;29.38;;;0.80;99.90;;;;;;4948272;29;20051;-86
2022/04/09 05:31:13;;;;;;;52.95;27.67;;;0.80;99.90;;;;;;4957783;28;20118;-85
2022/04/09 05:34:03;;;;;;;48.58;26.60;;;0.90;99.90;;;;;;4975567;28;20118;-85
2022/04/09 05:36:51;;;;;;;43.15;23.98;;;0.90;99.90;;;;;;4966014;28;20379;-86
2022/04/09 05:39:42;;;;;;;42.58;24.15;;;1.00;99.90;;;;;;4977606;28;20449;-86
2022/04/09 05:42:29;;;;;;;46.47;24.58;;;0.90;99.90;;;;;;4976994;28;20066;-87
2022/04/09 05:45:16;;;;;;;43.13;24.30;;;1.00;99.90;;;;;;4956172;28;20046;-87
2022/04/09 05:48:04;;;;;;;39.42;23.55;;;1.00;99.90;;;;;;4969917;28;20460;-86
2022/04/09 05:50:51;;;;;;;35.80;22.52;;;1.00;99.90;;;;;;4968228;28;20455;-87
2022/04/09 05:53:38;;;;;;;41.28;23.58;;;1.00;99.90;;;;;;4949710;28;20067;-87
2022/04/09 05:56:25;;;;;;;39.20;23.23;;;1.00;99.90;;;;;;4950397;29;20062;-87
2022/04/09 05:59:13;;;;;;;43.92;23.27;;;1.00;99.90;;;;;;4972860;28;20062;-86
2022/04/09 06:02:07;;;;;;;40.20;23.40;;;1.00;99.90;;;;;;4984938;28;20064;-88
2022/04/09 06:04:54;;;;;;;41.42;22.25;;;1.00;99.90;;;;;;4951553;28;20388;-90
2022/04/09 06:07:42;;;;;;;39.97;22.50;;;1.10;99.90;;;;;;4974071;28;20338;-88
2022/04/09 06:10:29;;;;;;;40.88;24.15;;;1.00;99.90;;;;;;4942016;29;20047;-88
2022/04/09 06:13:17;;;;;;;41.13;21.50;;;1.00;99.90;;;;;;4956934;28;20052;-87
2022/04/09 06:16:08;;;;;;;37.65;21.58;;;1.00;99.90;;;;;;4971629;28;20126;-88
2022/04/09 06:18:55;;;;;;;38.25;22.20;;;1.10;99.90;;;;;;4986192;28;20055;-86
2022/04/09 06:21:45;;;;;;;39.42;22.40;;;1.20;99.90;;;;;;4982122;28;20063;-88
2022/04/09 06:24:32;;;;;;;33.28;21.30;;;1.20;99.90;;;;;;4971324;28;20050;-90
2022/04/09 06:27:22;;;;;;;34.13;20.88;;;1.40;99.90;;;;;;4991862;28;20038;-87
2022/04/09 06:30:14;;;;;;;27.13;15.95;;;1.50;99.90;;;;;;4983731;28;20031;-86
2022/04/09 06:33:01;;;;;;;33.58;19.15;;;1.80;99.90;;;;;;4989320;28;20132;-89
2022/04/09 06:35:53;;;;;;;31.00;18.92;;;2.00;99.90;;;;;;4956019;29;20055;-88
2022/04/09 06:38:40;;;;;;;25.83;17.33;;;2.20;99.90;;;;;;4972498;28;20070;-89
2022/04/09 06:41:28;;;;;;;30.38;17.98;;;2.40;99.90;;;;;;4961276;29;20051;-89
2022/04/09 06:44:16;;;;;;;23.83;16.75;;;2.60;99.90;;;;;;4963061;28;20058;-86
2022/04/09 06:47:08;;;;;;;23.33;15.70;;;2.70;99.90;;;;;;4964460;28;20062;-91
2022/04/09 06:49:56;;;;;;;22.85;16.05;;;2.60;99.90;;;;;;4972673;28;20057;-89
2022/04/09 06:52:45;;;;;;;21.33;13.90;;;2.70;99.90;;;;;;4979432;28;20168;-89
2022/04/09 06:55:35;;;;;;;19.50;13.25;;;2.70;99.90;;;;;;4972249;28;20043;-89
2022/04/09 06:58:23;;;;;;;18.83;13.13;;;2.60;99.90;;;;;;4964436;28;20051;-88
2022/04/09 07:01:10;;;;;;;17.95;12.55;;;2.50;93.30;;;;;;4953159;29;20142;-87
2022/04/09 07:04:00;;;;;;;19.08;13.00;;;2.40;90.00;;;;;;4956051;29;20353;-85
2022/04/09 07:06:47;;;;;;;24.95;13.90;;;2.40;80.00;;;;;;4955965;29;20404;-85
2022/04/09 07:09:35;;;;;;;20.05;12.27;;;2.60;90.80;;;;;;4945315;28;20339;-87
2022/04/09 07:12:25;;;;;;;20.08;12.77;;;2.70;56.10;;;;;;4955917;28;20042;-88
2022/04/09 07:15:18;;;;;;;22.85;13.20;;;2.70;38.80;;;;;;4959450;28;20155;-88
2022/04/09 07:18:05;;;;;;;18.95;12.60;;;2.80;30.30;;;;;;4960112;28;20106;-85
2022/04/09 07:20:55;;;;;;;18.00;12.48;;;3.20;16.90;;;;;;4975018;28;20090;-87
2022/04/09 07:23:44;;;;;;;20.08;11.85;;;3.30;1.00;;;;;;4968143;28;20055;-87
2022/04/09 07:26:34;;;;;;;16.35;9.80;;;3.50;1.00;;;;;;4972555;28;20049;-86
2022/04/09 07:29:23;;;;;;;14.02;9.27;;;3.40;1.00;;;;;;4967044;28;20132;-87
2022/04/09 07:32:13;;;;;;;13.73;9.30;;;3.30;1.00;;;;;;4951471;28;20138;-86
2022/04/09 07:35:01;;;;;;;16.08;9.70;;;3.30;1.00;;;;;;4967841;28;20055;-86
2022/04/09 07:37:50;;;;;;;30.20;8.55;;;3.60;1.00;;;;;;4962652;29;20058;-87
2022/04/09 07:40:42;;;;;;;19.65;9.43;;;3.70;1.00;;;;;;4977886;28;20047;-87
2022/04/09 07:43:30;;;;;;;12.80;7.07;;;4.00;99.90;;;;;;4962096;29;20149;-89
2022/04/09 07:46:18;;;;;;;13.98;7.28;;;4.20;99.90;;;;;;4973512;28;20051;-89
2022/04/09 07:49:06;;;;;;;12.70;8.02;;;4.30;99.90;;;;;;4989756;28;20049;-91
2022/04/09 07:51:54;;;;;;;17.80;8.07;;;4.40;99.90;;;;;;4994704;28;20113;-81
2022/04/09 07:54:41;;;;;;;13.75;7.18;;;4.20;99.90;;;;;;4989713;28;20042;-88
2022/04/09 07:57:29;;;;;;;15.50;8.63;;;3.70;99.90;;;;;;4991821;28;20054;-87
2022/04/09 08:00:18;;;;;;;12.98;7.97;;;3.60;99.90;;;;;;4992758;28;20042;-90
2022/04/09 08:03:05;;;;;;;15.55;8.75;;;3.60;1.00;;;;;;4985241;28;20130;-90
2022/04/09 08:05:54;;;;;;;17.83;8.05;;;3.70;99.90;;;;;;4967592;29;20051;-90
2022/04/09 08:08:43;;;;;;;20.02;7.90;;;3.60;1.00;;;;;;4977235;28;20051;-89
2022/04/09 08:11:31;;;;;;;12.90;8.45;;;3.60;1.00;;;;;;4976051;28;20054;-87
2022/04/09 08:14:18;;;;;;;18.30;8.07;;;3.70;99.90;;;;;;4975758;28;20042;-89
2022/04/09 08:17:06;;;;;;;13.27;6.97;;;3.90;99.90;;;;;;4978492;28;20107;-86
2022/04/09 08:19:55;;;;;;;17.25;6.88;;;3.90;99.90;;;;;;4959214;28;20075;-90
2022/04/09 08:22:42;;;;;;;15.63;6.10;;;4.80;38.30;;;;;;4952741;28;20094;-89
2022/04/09 08:25:30;;;;;;;13.63;5.78;;;5.40;1.00;;;;;;4950416;28;20185;-91
2022/04/09 08:28:20;;;;;;;11.27;5.47;;;6.10;1.00;;;;;;4970259;28;20043;-89
2022/04/09 08:31:08;;;;;;;10.20;6.20;;;6.00;1.00;;;;;;4975543;28;20054;-91
2022/04/09 08:33:55;;;;;;;10.20;6.93;;;5.30;1.00;;;;;;4960783;29;20158;-91
2022/04/09 08:36:44;;;;;;;11.95;6.00;;;4.60;99.90;;;;;;4967961;28;20047;-89
2022/04/09 08:39:31;;;;;;;13.70;7.00;;;4.20;61.90;;;;;;4955427;28;20047;-90
2022/04/09 08:42:21;;;;;;;16.38;7.38;;;3.90;99.90;;;;;;4975041;28;20055;-87
2022/04/09 08:45:10;;;;;;;15.35;8.25;;;3.70;99.90;;;;;;4975226;28;20054;-89
2022/04/09 08:47:58;;;;;;;16.58;7.72;;;3.80;1.00;;;;;;4969238;28;20457;-88
2022/04/09 08:50:46;;;;;;;12.38;5.82;;;4.20;1.00;;;;;;4974796;28;20162;-88
2022/04/09 08:53:38;;;;;;;14.70;6.50;;;4.50;1.00;;;;;;4969643;28;20428;-91
2022/04/09 08:56:27;;;;;;;13.73;6.15;;;4.80;99.90;;;;;;4971313;28;20058;-87
2022/04/09 08:59:14;;;;;;;10.50;6.20;;;4.40;1.00;;;;;;4974468;28;20106;-88
2022/04/09 09:02:03;;;;;;;14.38;7.18;;;4.40;92.00;;;;;;4969218;29;20070;-88
2022/04/09 09:04:51;;;;;;;13.77;6.35;;;4.30;1.00;;;;;;4951408;29;20059;-89
2022/04/09 09:07:45;;;;;;;10.82;6.03;;;4.40;1.00;;;;;;4968708;28;20050;-90
2022/04/09 09:10:34;;;;;;;14.23;5.82;;;4.50;1.00;;;;;;4963336;28;20149;-87
2022/04/09 09:13:21;;;;;;;20.42;6.40;;;4.40;99.90;;;;;;4974428;28;20065;-88
2022/04/09 09:16:09;;;;;;;10.70;4.97;;;4.40;99.90;;;;;;4965730;28;20424;-89
2022/04/09 09:19:06;;;;;;;9.27;4.30;;;4.60;1.00;;;;;;4984429;28;20130;-89
2022/04/09 09:22:01;;;;;;;14.50;5.88;;;4.70;1.00;;;;;;4957150;28;20469;-86
2022/04/09 09:25:05;;;;;;;13.73;6.78;;;4.50;99.90;;;;;;4972635;28;20054;-87
2022/04/09 09:27:58;;;;;;;15.95;6.60;;;4.40;1.00;;;;;;4969578;28;20039;-87
2022/04/09 09:30:48;;;;;;;15.13;5.25;;;4.50;99.90;;;;;;4961501;28;20059;-89
2022/04/09 09:33:50;;;;;;;13.00;4.80;;;4.70;99.90;;;;;;4946644;29;20066;-89
2022/04/09 09:36:57;;;;;;;10.60;4.10;;;4.80;99.90;;;;;;4966378;28;20046;-86
2022/04/09 09:39:45;;;;;;;14.43;4.75;;;4.90;99.90;;;;;;4974309;28;20376;-88
2022/04/09 09:42:35;;;;;;;13.73;5.22;;;4.70;79.80;;;;;;4974912;28;20054;-88
2022/04/09 09:45:42;;;;;;;15.07;5.53;;;4.50;99.90;;;;;;4964228;28;20050;-89
2022/04/09 09:48:35;;;;;;;9.45;3.45;;;5.60;1.00;;;;;;4965016;28;20054;-89
2022/04/09 09:51:26;;;;;;;9.02;3.38;;;7.00;1.00;;;;;;4944827;28;20055;-88
2022/04/09 09:54:20;;;;;;;8.23;4.03;;;6.80;99.90;;;;;;4959776;28;20039;-86
2022/04/09 09:57:20;;;;;;;8.55;4.10;;;6.00;1.00;;;;;;4957874;28;20049;-87
2022/04/09 10:00:14;;;;;;;7.57;2.83;;;6.90;99.90;;;;;;4970070;28;20051;-86
2022/04/09 10:03:02;;;;;;;7.88;3.78;;;8.10;99.90;;;;;;4978237;28;20051;-89
2022/04/09 10:05:53;;;;;;;7.90;3.35;;;9.10;99.90;;;;;;4960979;28;20062;-87
2022/04/09 10:08:41;;;;;;;9.10;3.45;;;10.50;1.00;;;;;;4948120;29;20055;-90
2022/04/09 10:11:34;;;;;;;7.95;2.50;;;11.30;99.90;;;;;;4946470;28;20047;-89
2022/04/09 10:14:25;;;;;;;6.65;2.40;;;10.90;99.90;;;;;;4965573;28;20054;-91
2022/04/09 10:17:16;;;;;;;8.30;2.95;;;10.70;99.90;;;;;;4946830;29;20047;-88
2022/04/09 10:20:08;;;;;;;7.93;3.08;;;9.70;99.90;;;;;;4961052;28;20182;-90
2022/04/09 10:23:00;;;;;;;6.25;2.70;;;9.60;99.90;;;;;;4962084;28;20393;-91
2022/04/09 10:25:51;;;;;;;11.67;2.47;;;10.40;99.90;;;;;;4963024;28;20085;-89
2022/04/09 10:28:43;;;;;;;5.57;2.00;;;11.00;99.90;;;;;;4960386;29;20295;-93
2022/04/09 10:31:34;;;;;;;7.72;2.40;;;11.80;99.90;;;;;;4957122;28;20043;-93
2022/04/09 10:34:47;;;;;;;8.80;2.95;;;11.80;99.90;;;;;;4950854;28;20035;-83
2022/04/09 10:38:07;;;;;;;6.75;2.40;;;10.30;99.90;;;;;;4956407;28;20070;-86
2022/04/09 10:40:57;;;;;;;5.38;2.45;;;9.80;99.90;;;;;;4982618;28;20465;-85
2022/04/09 10:43:45;;;;;;;7.55;2.42;;;10.90;99.90;;;;;;4972905;28;20047;-86
2022/04/09 10:46:35;;;;;;;13.57;3.40;;;11.70;99.90;;;;;;4949691;29;20122;-85
2022/04/09 10:49:28;;;;;;;7.60;2.65;;;10.90;99.90;;;;;;4958882;28;20043;-87
2022/04/09 10:52:20;;;;;;;;;;;11.60;99.90;;;;;;4955605;28;20158;-86
2022/04/09 10:55:10;;;;;;;8.52;2.40;;;12.10;99.90;;;;;;4956016;28;20324;-84
2022/04/09 10:58:01;;;;;;;8.80;1.95;;;12.00;99.90;;;;;;4956576;28;20046;-86
2022/04/09 11:00:50;;;;;;;5.78;2.42;;;12.90;99.90;;;;;;4988046;28;20046;-87
2022/04/09 11:03:38;;;;;;;5.63;2.10;;;13.70;99.90;;;;;;4959932;28;20054;-86
2022/04/09 11:06:43;;;;;;;6.43;2.25;;;13.90;87.30;;;;;;4959210;28;20058;-86
2022/04/09 11:09:56;;;;;;;5.78;1.95;;;12.40;68.00;;;;;;4971972;28;20372;-85
2022/04/09 11:12:45;;;;;;;7.55;2.50;;;10.60;82.00;;;;;;4961673;28;20044;-85
2022/04/09 11:15:33;;;;;;;6.72;2.53;;;9.80;99.90;;;;;;4956351;28;20047;-86
2022/04/09 11:18:20;;;;;;;5.97;2.53;;;11.00;99.90;;;;;;4954333;28;20316;-87
2022/04/09 11:21:17;;;;;;;9.07;3.10;;;12.10;99.90;;;;;;4967272;28;20419;-87
2022/04/09 11:24:11;;;;;;;7.22;2.53;;;12.20;99.90;;;;;;4961384;28;20051;-86
2022/04/09 11:27:01;;;;;;;6.50;2.10;;;12.50;99.90;;;;;;4934835;28;20062;-86
2022/04/09 11:29:54;;;;;;;6.00;2.30;;;13.50;98.30;;;;;;4954972;28;20054;-89
2022/04/09 11:32:41;;;;;;;7.60;2.65;;;13.10;52.20;;;;;;4939705;29;20061;-87
2022/04/09 11:35:35;;;;;;;5.45;1.90;;;12.70;48.60;;;;;;4956549;28;20058;-85
2022/04/09 11:38:30;;;;;;;6.68;2.38;;;13.80;61.50;;;;;;4967211;28;20058;-88
2022/04/09 11:41:22;;;;;;;6.47;2.28;;;13.90;48.60;;;;;;4953247;28;20073;-88
2022/04/09 11:44:10;;;;;;;6.90;2.33;;;13.60;38.50;;;;;;4941206;28;20140;-89
2022/04/09 11:46:58;;;;;;;7.97;2.30;;;14.00;40.20;;;;;;4954267;28;20416;-87
2022/04/09 11:49:54;;;;;;;6.05;2.20;;;14.00;29.40;;;;;;4965928;28;20038;-91
2022/04/09 11:52:46;;;;;;;7.30;2.17;;;14.30;23.50;;;;;;4958099;28;20047;-91
2022/04/09 11:55:33;;;;;;;6.88;2.00;;;14.20;17.40;;;;;;4950719;28;20129;-85
2022/04/09 11:58:33;;;;;;;8.38;2.20;;;14.30;16.20;;;;;;4948483;28;20163;-87
2022/04/09 12:01:20;;;;;;;7.20;2.00;;;14.60;11.20;;;;;;4962234;28;20106;-86
2022/04/09 12:04:07;;;;;;;5.15;1.75;;;13.30;7.60;;;;;;4955432;28;20129;-85
2022/04/09 12:06:55;;;;;;;6.65;1.85;;;13.50;2.80;;;;;;4961521;28;20071;-85
2022/04/09 12:09:45;;;;;;;7.63;2.20;;;13.50;3.00;;;;;;4954724;28;20082;-84
2022/04/09 12:12:41;;;;;;;7.45;2.10;;;12.70;1.00;;;;;;4956334;28;20062;-86
2022/04/09 12:15:35;;;;;;;5.65;2.30;;;11.40;1.00;;;;;;4968312;28;20078;-84
2022/04/09 12:18:33;;;;;;;12.82;2.00;;;11.20;2.80;;;;;;4968562;28;20046;-86
2022/04/09 12:21:20;;;;;;;9.90;2.35;;;13.20;13.10;;;;;;4952884;28;20051;-87
2022/04/09 12:24:12;;;;;;;7.05;1.83;;;13.40;1.00;;;;;;4966096;28;20061;-89
2022/04/09 12:27:02;;;;;;;7.50;1.98;;;13.40;1.00;;;;;;4961305;28;20055;-86
2022/04/09 12:29:52;;;;;;;7.35;2.15;;;12.80;1.00;;;;;;4944192;28;20043;-87
2022/04/09 12:32:42;;;;;;;7.90;1.92;;;12.80;1.00;;;;;;4967760;28;20063;-86
2022/04/09 12:35:32;;;;;;;7.22;2.15;;;12.20;1.00;;;;;;4956828;28;20061;-86
2022/04/09 12:38:30;;;;;;;8.88;2.22;;;11.00;1.00;;;;;;4949125;28;20046;-87
2022/04/09 12:41:22;;;;;;;8.02;2.67;;;10.80;1.00;;;;;;4956419;29;20059;-87
2022/04/09 12:44:29;;;;;;;4.27;1.77;;;10.10;1.00;;;;;;4963976;28;20127;-86
2022/04/09 12:47:21;;;;;;;6.72;2.58;;;10.80;2.20;;;;;;4955316;29;20059;-87
2022/04/09 12:50:19;;;;;;;8.10;2.20;;;11.70;1.00;;;;;;4971047;28;20140;-86
2022/04/09 12:53:07;;;;;;;7.07;1.98;;;11.90;4.90;;;;;;4961970;28;20051;-87
2022/04/09 12:55:54;;;;;;;3.97;1.55;;;12.60;1.00;;;;;;4957976;28;20043;-87
2022/04/09 12:58:43;;;;;;;5.57;1.80;;;13.80;1.00;;;;;;4961894;28;20058;-87
2022/04/09 13:01:31;;;;;;;8.75;1.70;;;15.30;1.00;;;;;;4974183;28;20051;-88
2022/04/09 13:04:19;;;;;;;9.18;1.77;;;15.60;1.00;;;;;;4952628;28;20357;-86
2022/04/09 13:07:09;;;;;;;5.22;1.45;;;15.60;1.00;;;;;;4956566;28;20055;-87
2022/04/09 13:09:56;;;;;;;7.13;1.55;;;15.60;1.00;;;;;;4951567;28;20035;-87
2022/04/09 13:12:44;;;;;;;6.10;1.90;;;15.80;1.00;;;;;;4965529;28;20138;-87
2022/04/09 13:15:31;;;;;;;4.57;1.63;;;15.70;1.00;;;;;;4961738;28;20080;-87
2022/04/09 13:18:19;;;;;;;6.60;1.75;;;15.40;1.00;;;;;;4975792;28;20046;-87
2022/04/09 13:21:07;;;;;;;7.80;1.95;;;16.00;1.00;;;;;;4972509;28;20055;-89
2022/04/09 13:23:55;;;;;;;6.47;1.95;;;16.40;1.00;;;;;;4963456;28;20100;-87
2022/04/09 13:26:42;;;;;;;6.13;1.20;;;16.30;1.00;;;;;;4960806;28;20469;-86
2022/04/09 13:29:29;;;;;;;8.50;1.80;;;16.50;1.00;;;;;;4964170;28;20043;-86
2022/04/09 13:32:20;;;;;;;3.38;1.50;;;16.60;1.00;;;;;;4967656;28;20110;-86
2022/04/09 13:35:07;;;;;;;8.27;1.75;;;17.50;1.00;;;;;;4956556;29;20102;-86
2022/04/09 13:37:55;;;;;;;6.90;1.30;;;17.20;1.00;;;;;;4967869;28;20046;-88
2022/04/09 13:40:43;;;;;;;4.55;1.48;;;17.30;1.00;;;;;;4955603;28;20068;-85
2022/04/09 13:43:31;;;;;;;6.32;1.80;;;17.50;1.00;;;;;;4948193;28;20058;-86
2022/04/09 13:46:18;;;;;;;5.65;1.98;;;14.90;1.00;;;;;;4949675;28;20051;-88
2022/04/09 13:49:08;;;;;;;9.45;2.20;;;13.30;1.00;;;;;;4976090;28;20533;-87
2022/04/09 13:51:57;;;;;;;6.53;1.75;;;11.60;1.00;;;;;;4957226;28;20138;-87
2022/04/09 13:54:45;;;;;;;4.55;2.13;;;11.10;1.00;;;;;;4980733;28;20061;-88
2022/04/09 13:57:39;;;;;;;4.13;1.90;;;10.90;1.00;;;;;;4969611;28;20408;-87
2022/04/09 14:00:27;;;;;;;9.52;2.58;;;11.10;1.00;;;;;;4968075;28;20107;-85
2022/04/09 14:03:15;;;;;;;7.03;2.25;;;11.80;1.00;;;;;;4951592;28;20053;-86
2022/04/09 14:06:02;;;;;;;7.05;1.90;;;11.00;1.00;;;;;;4973946;28;20131;-86
2022/04/09 14:08:50;;;;;;;5.00;2.00;;;10.10;1.00;;;;;;4945751;29;20179;-86
2022/04/09 14:11:40;;;;;;;5.35;1.67;;;10.70;1.00;;;;;;4954786;28;20057;-85
2022/04/09 14:14:31;;;;;;;5.72;1.75;;;10.90;1.00;;;;;;4966215;28;20134;-83
2022/04/09 14:17:21;;;;;;;5.28;2.53;;;10.90;1.00;;;;;;4962063;28;20043;-86
2022/04/09 14:20:14;;;;;;;8.43;3.03;;;10.10;1.00;;;;;;4987485;28;20065;-85
2022/04/09 14:23:07;;;;;;;6.35;2.33;;;9.20;1.00;;;;;;4958483;28;20059;-87
2022/04/09 14:25:55;;;;;;;3.90;2.03;;;8.40;1.00;;;;;;4945717;28;20050;-87
2022/04/09 14:28:46;;;;;;;5.57;2.35;;;8.00;1.00;;;;;;4961309;28;20077;-87
2022/04/09 14:31:34;;;;;;;5.72;2.35;;;8.10;1.00;;;;;;4951199;28;20046;-83
2022/04/09 14:34:22;;;;;;;8.75;2.53;;;8.30;1.00;;;;;;4959838;28;20047;-85
2022/04/09 14:37:10;;;;;;;6.75;2.53;;;8.70;1.00;;;;;;4953629;29;20372;-86
2022/04/09 14:39:58;;;;;;;8.82;2.60;;;8.90;1.00;;;;;;4956671;28;20099;-85
2022/04/09 14:42:45;;;;;;;7.85;2.70;;;9.40;1.00;;;;;;4961407;28;20070;-84
2022/04/09 14:45:32;;;;;;;8.38;2.40;;;10.60;1.00;;;;;;4966578;28;20105;-86
2022/04/09 14:48:21;;;;;;;9.10;2.53;;;11.90;1.00;;;;;;4972653;28;20073;-86